Aérodrome :
LOGIN :

S'inscrire | Disclaimer

   EN    FR    IT 

 










Légende :    VFR   VFR Marginal   IFR   IFR Intensif   IFR Très Intensif
Visi : 
Plafond : 
>= 8 km
>= 3000ft
5 à 8 km
1000 à 3000 ft
1500m à 5 km
500 à 1000 ft
800 à 1500m
200 à 500 ft
< 800m
< 200 ft
Symboles :   Orages  Brouillard  Fortes neiges  Fortes précipitations  Vent > 20 kt
SIGMETs :   Divers  Orages  Givrage  Turbulence  Onde Orograph.  Cendres Volcan.






- Altitude de l'aérodrome : -11 ft
- Code IATA : AMS


EHAM - Amsterdam Schiphol

DERNIER METAR :
  • 221325Z VRB08KT 9999 FEW046 20/10 Q1014 NOSIG

METARs EXPIRÉS :
  • 221255Z VRB07KT 9999 FEW045 20/09 Q1014 NOSIG
  • 221225Z VRB06KT 9999 FEW042 20/09 Q1015 NOSIG
  • 221155Z VRB04KT 9999 FEW042 20/10 Q1015 NOSIG
  • 221125Z VRB04KT 9999 FEW042 20/10 Q1015 NOSIG
  • 221055Z 14006KT 080V190 9999 FEW040 19/10 Q1016 NOSIG

TAF TAF EHAM
Valide du 22 à 12h jusqu'au 23 à 18h UTC


221101Z 2212/2318 17005KT CAVOK
BECMG 2215/2218 34007KT
BECMG 2219/2222 12007KT
PROB40
TEMPO 2316/2318 32007KT 7000 -RA BKN020



MET'MAP, la Météo Aéronautique d'un coup d'oeil ! - Copyright ORBIFLY Décembre 2007 - Disclaimer

ORBIFLY MET'MAP TEAM :

Programmation & Développement : Alexandra Zaïnal
Sur une idée originale de : Baudouin d'Aumeries
Soutien technique & logistique : Manuel Goepfert
Assistance : Marc-Olivier Méhu

Contact : metmap@orbifly.com




SOURCES & CREDITS :

   NOAA